createdAt,value
2019-03-17T00:01:24.937Z,88.71
2019-03-17T00:06:28.121Z,88.85
2019-03-17T00:11:31.188Z,88.97
2019-03-17T00:16:34.520Z,88.72
2019-03-17T00:21:37.490Z,88.37
2019-03-17T00:26:40.519Z,88.00
2019-03-17T00:31:43.656Z,88.73
2019-03-17T00:36:46.626Z,89.52
2019-03-17T00:41:49.766Z,89.75
2019-03-17T00:46:52.861Z,89.54
2019-03-17T00:51:56.190Z,89.30
2019-03-17T00:56:59.256Z,88.25
2019-03-17T01:02:02.345Z,86.10
2019-03-17T01:07:05.616Z,86.06
2019-03-17T01:12:08.710Z,86.33
2019-03-17T01:17:11.828Z,86.93
2019-03-17T01:22:15.049Z,87.21
2019-03-17T01:27:18.418Z,88.09
2019-03-17T01:32:22.074Z,87.55
2019-03-17T01:37:25.128Z,87.61
2019-03-17T01:42:28.201Z,87.18
2019-03-17T01:47:31.220Z,85.38
2019-03-17T01:52:34.172Z,84.56
2019-03-17T01:57:37.206Z,84.38
2019-03-17T02:02:40.285Z,83.79
2019-03-17T02:07:43.627Z,84.72
2019-03-17T02:12:46.676Z,84.91
2019-03-17T02:17:49.623Z,83.76
2019-03-17T02:22:52.857Z,83.07
2019-03-17T02:27:55.824Z,83.47
2019-03-17T02:32:58.940Z,83.72
2019-03-17T02:38:02.061Z,83.20
2019-03-17T02:43:05.226Z,85.02
2019-03-17T02:48:08.484Z,85.84
2019-03-17T02:53:11.638Z,85.36
2019-03-17T02:58:14.803Z,84.56
2019-03-17T03:03:18.108Z,84.53
2019-03-17T03:08:21.133Z,84.51
2019-03-17T03:13:24.240Z,84.36
2019-03-17T03:18:27.225Z,84.16
2019-03-17T03:23:30.311Z,84.66
2019-03-17T03:28:33.484Z,84.83
2019-03-17T03:33:36.673Z,84.98
2019-03-17T03:38:39.820Z,85.20
2019-03-17T03:43:42.770Z,85.26
2019-03-17T03:48:45.757Z,84.89
2019-03-17T03:53:48.986Z,85.65
2019-03-17T03:58:52.438Z,85.55
2019-03-17T04:03:55.615Z,85.33
2019-03-17T04:08:58.897Z,85.34
2019-03-17T04:14:02.138Z,84.95
2019-03-17T04:19:05.247Z,84.39
2019-03-17T04:24:08.290Z,84.72
2019-03-17T04:29:11.277Z,85.30
2019-03-17T04:34:14.388Z,84.88
2019-03-17T04:39:17.568Z,85.63
2019-03-17T04:44:21.304Z,85.95
2019-03-17T04:49:24.808Z,86.10
2019-03-17T04:54:27.914Z,87.25
2019-03-17T04:59:31.123Z,87.37
2019-03-17T05:04:34.321Z,86.17
2019-03-17T05:09:37.458Z,85.89
2019-03-17T05:14:40.680Z,86.84
2019-03-17T05:19:43.632Z,86.64
2019-03-17T05:24:46.877Z,87.42
2019-03-17T05:29:50.354Z,87.53
2019-03-17T05:34:53.722Z,87.40
2019-03-17T05:39:56.820Z,87.18
2019-03-17T05:45:00.379Z,84.66
2019-03-17T05:50:04.775Z,84.30
2019-03-17T05:55:08.139Z,83.78
2019-03-17T06:00:12.782Z,83.16
2019-03-17T06:05:15.931Z,83.45
2019-03-17T06:10:19.146Z,83.36
2019-03-17T06:15:22.207Z,83.54
2019-03-17T06:20:25.191Z,79.82
2019-03-17T06:25:28.517Z,75.12
2019-03-17T06:30:31.781Z,74.43
2019-03-17T06:35:34.740Z,63.68
2019-03-17T06:40:37.961Z,72.18
2019-03-17T06:45:41.013Z,72.53
2019-03-17T06:50:44.223Z,72.30
2019-03-17T06:55:47.340Z,72.07
2019-03-17T07:00:50.440Z,71.46
2019-03-17T07:05:53.567Z,70.16
2019-03-17T07:10:56.664Z,69.49
2019-03-17T07:15:59.772Z,68.89
2019-03-17T07:21:03.067Z,67.82
2019-03-17T07:26:06.467Z,66.34
2019-03-17T07:31:09.678Z,65.48
2019-03-17T07:36:12.649Z,65.58
2019-03-17T07:41:15.946Z,63.91
2019-03-17T07:46:19.123Z,62.83
2019-03-17T07:51:22.541Z,61.76
2019-03-17T07:56:25.968Z,60.62
2019-03-17T08:01:29.691Z,60.21
2019-03-17T08:06:32.673Z,59.45
2019-03-17T08:11:35.890Z,56.77
2019-03-17T08:16:39.463Z,56.85
2019-03-17T08:21:43.386Z,55.29
2019-03-17T08:26:46.901Z,54.98
2019-03-17T08:31:50.185Z,53.13
2019-03-17T08:36:53.167Z,52.01
2019-03-17T08:41:56.148Z,50.80
2019-03-17T08:46:59.283Z,49.63
2019-03-17T08:52:02.366Z,48.84
2019-03-17T08:57:05.423Z,48.05
2019-03-17T09:02:09.027Z,48.85
2019-03-17T09:07:12.339Z,47.29
2019-03-17T09:12:15.446Z,47.26
2019-03-17T09:17:18.970Z,46.17
2019-03-17T09:22:22.110Z,44.65
2019-03-17T09:27:25.183Z,42.88
2019-03-17T09:32:28.709Z,42.33
2019-03-17T09:37:31.906Z,43.08
2019-03-17T09:42:34.969Z,41.10
2019-03-17T09:47:40.944Z,40.25
2019-03-17T09:52:43.242Z,39.58
2019-03-17T09:57:46.235Z,38.07
2019-03-17T10:02:49.519Z,38.38
2019-03-17T10:07:52.541Z,38.12
2019-03-17T10:12:55.712Z,35.51
2019-03-17T10:17:59.025Z,35.84
2019-03-17T10:23:02.060Z,34.58
2019-03-17T10:28:05.545Z,34.90
2019-03-17T10:33:08.645Z,33.85
2019-03-17T10:38:11.813Z,34.42
2019-03-17T10:43:14.877Z,34.04
2019-03-17T10:48:17.981Z,32.87
2019-03-17T10:53:21.396Z,31.72
2019-03-17T10:58:24.908Z,31.62
2019-03-17T11:03:28.438Z,31.20
2019-03-17T11:08:31.617Z,29.33
2019-03-17T11:13:34.755Z,27.49
2019-03-17T11:18:37.866Z,27.15
2019-03-17T11:23:40.864Z,27.18
2019-03-17T11:28:44.243Z,24.98
2019-03-17T11:33:47.503Z,25.09
2019-03-17T11:38:50.538Z,24.13
2019-03-17T11:43:53.696Z,25.32
2019-03-17T11:48:56.955Z,23.62
2019-03-17T11:54:00.018Z,25.08
2019-03-17T11:59:03.003Z,24.28
2019-03-17T12:04:06.124Z,24.96
2019-03-17T12:09:09.293Z,24.35
2019-03-17T12:14:12.252Z,22.43
2019-03-17T12:19:15.521Z,21.24
2019-03-17T12:24:18.757Z,20.60
2019-03-17T12:29:22.037Z,21.71
2019-03-17T12:34:28.597Z,21.88
2019-03-17T12:39:30.253Z,21.02
2019-03-17T12:44:33.487Z,20.58
2019-03-17T12:49:36.625Z,21.27
2019-03-17T12:54:39.829Z,20.71
2019-03-17T12:59:42.898Z,18.89
2019-03-17T13:04:46.016Z,18.74
2019-03-17T13:09:49.217Z,20.53
2019-03-17T13:14:52.588Z,19.04
2019-03-17T13:19:55.792Z,18.06
2019-03-17T13:24:58.772Z,17.96
2019-03-17T13:30:01.769Z,18.68
2019-03-17T13:35:05.455Z,18.85
2019-03-17T13:40:10.571Z,19.04
2019-03-17T13:45:13.829Z,17.64
2019-03-17T13:50:16.984Z,20.56
2019-03-17T13:55:20.164Z,18.20
2019-03-17T14:00:23.146Z,16.24
2019-03-17T14:05:26.526Z,16.86
2019-03-17T14:10:40.354Z,16.71
2019-03-17T14:15:34.799Z,16.74
2019-03-17T14:20:37.905Z,16.98
2019-03-17T14:25:40.945Z,16.40
2019-03-17T14:30:44.335Z,15.14
2019-03-17T14:35:47.666Z,16.55
2019-03-17T14:40:53.948Z,16.23
2019-03-17T14:45:56.233Z,15.27
2019-03-17T14:50:59.582Z,15.39
2019-03-17T14:56:02.942Z,16.20
2019-03-17T15:01:06.190Z,15.16
2019-03-17T15:06:09.190Z,15.51
2019-03-17T15:11:12.293Z,17.62
2019-03-17T15:16:15.495Z,16.17
2019-03-17T15:21:18.633Z,16.82
2019-03-17T15:26:21.765Z,16.95
2019-03-17T15:31:25.189Z,17.78
2019-03-17T15:36:28.448Z,18.99
2019-03-17T15:41:31.674Z,18.70
2019-03-17T15:46:34.921Z,21.66
2019-03-17T15:51:38.088Z,20.22
2019-03-17T15:56:41.402Z,19.05
2019-03-17T16:01:44.549Z,19.78
2019-03-17T16:06:47.613Z,19.82
2019-03-17T16:11:50.720Z,20.12
2019-03-17T16:16:53.849Z,20.19
2019-03-17T16:21:57.038Z,22.01
2019-03-17T16:27:00.242Z,24.72
2019-03-17T16:32:03.570Z,21.45
2019-03-17T16:37:06.690Z,23.37
2019-03-17T16:42:10.182Z,24.54
2019-03-17T16:47:13.181Z,24.90
2019-03-17T16:52:16.641Z,26.01
2019-03-17T16:57:19.723Z,26.10
2019-03-17T17:02:22.776Z,26.84
2019-03-17T17:07:25.889Z,24.72
2019-03-17T17:12:28.910Z,27.28
2019-03-17T17:17:32.097Z,26.92
2019-03-17T17:22:35.076Z,26.05
2019-03-17T17:27:38.435Z,27.09
2019-03-17T17:32:41.856Z,27.67
2019-03-17T17:37:44.822Z,27.03
2019-03-17T17:42:48.111Z,27.28
2019-03-17T17:47:51.203Z,27.62
2019-03-17T17:52:54.683Z,28.22
2019-03-17T17:57:57.765Z,27.64
2019-03-17T18:03:00.855Z,27.70
2019-03-17T18:08:03.831Z,30.53
2019-03-17T18:13:06.969Z,30.79
2019-03-17T18:18:10.045Z,30.19
2019-03-17T18:23:18.198Z,30.12
2019-03-17T18:28:18.446Z,32.36
2019-03-17T18:33:21.663Z,33.89
2019-03-17T18:38:25.017Z,33.89
2019-03-17T18:43:28.320Z,35.35
2019-03-17T18:48:31.580Z,35.92
2019-03-17T18:53:34.719Z,34.06
2019-03-17T18:58:37.798Z,36.91
2019-03-17T19:03:41.281Z,37.88
2019-03-17T19:08:44.427Z,41.14
2019-03-17T19:13:47.635Z,40.05
2019-03-17T19:18:50.665Z,37.76
2019-03-17T19:23:53.846Z,37.82
2019-03-17T19:28:57.177Z,40.42
2019-03-17T19:34:00.522Z,40.17
2019-03-17T19:39:06.536Z,40.32
2019-03-17T19:44:09.794Z,41.22
2019-03-17T19:49:13.029Z,41.43
2019-03-17T19:54:16.309Z,42.45
2019-03-17T19:59:19.966Z,42.92
2019-03-17T20:04:30.353Z,46.31
2019-03-17T20:09:28.803Z,46.91
2019-03-17T20:14:32.113Z,48.74
2019-03-17T20:19:35.324Z,47.56
2019-03-17T20:24:39.299Z,48.25
2019-03-17T20:29:42.476Z,48.13
2019-03-17T20:34:45.964Z,47.53
2019-03-17T20:39:49.366Z,48.12
2019-03-17T20:44:52.723Z,50.47
2019-03-17T20:49:56.029Z,51.10
2019-03-17T20:54:59.708Z,53.02
2019-03-17T21:00:03.777Z,49.71
2019-03-17T21:05:08.362Z,50.46
2019-03-17T21:10:11.656Z,51.43
2019-03-17T21:15:14.861Z,49.97
2019-03-17T21:20:17.933Z,50.27
2019-03-17T21:25:21.402Z,53.84
2019-03-17T21:30:24.753Z,55.70
2019-03-17T21:35:28.354Z,55.12
2019-03-17T21:40:31.590Z,56.37
2019-03-17T21:45:35.859Z,54.67
2019-03-17T21:50:39.047Z,52.84
2019-03-17T21:55:42.468Z,52.83
2019-03-17T22:00:45.827Z,53.60
2019-03-17T22:05:49.500Z,53.60
2019-03-17T22:10:52.824Z,54.38
2019-03-17T22:15:56.163Z,55.46
2019-03-17T22:20:59.455Z,55.94
2019-03-17T22:26:02.967Z,55.87
2019-03-17T22:31:06.178Z,55.68
2019-03-17T22:36:09.224Z,55.25
2019-03-17T22:41:12.482Z,55.52
2019-03-17T22:46:15.815Z,55.91
2019-03-17T22:51:19.503Z,57.76
2019-03-17T22:56:22.642Z,57.90
2019-03-17T23:01:26.692Z,56.95
2019-03-17T23:06:30.770Z,54.87
2019-03-17T23:11:34.807Z,54.88
2019-03-17T23:16:39.708Z,54.52
2019-03-17T23:21:43.664Z,56.50
2019-03-17T23:26:47.611Z,56.52
2019-03-17T23:31:52.038Z,56.25
2019-03-17T23:36:55.852Z,55.04
2019-03-17T23:41:59.454Z,56.64
2019-03-17T23:47:03.563Z,60.62
2019-03-17T23:52:07.523Z,62.48
2019-03-17T23:57:10.992Z,63.84
